createdAt,value
2023-05-21T00:01:40.343Z,15.67
2023-05-21T00:04:25.583Z,14.20
2023-05-21T00:07:11.682Z,13.90
2023-05-21T00:09:57.559Z,13.33
2023-05-21T00:12:43.065Z,14.63
2023-05-21T00:15:28.432Z,14.20
2023-05-21T00:18:13.678Z,14.93
2023-05-21T00:20:59.401Z,14.57
2023-05-21T00:23:45.494Z,13.97
2023-05-21T00:26:30.958Z,12.97
2023-05-21T00:29:16.369Z,14.50
2023-05-21T00:32:01.684Z,13.63
2023-05-21T00:34:47.368Z,14.80
2023-05-21T00:37:32.752Z,14.63
2023-05-21T00:40:18.981Z,14.33
2023-05-21T00:43:04.623Z,14.37
2023-05-21T00:45:49.807Z,13.77
2023-05-21T00:48:35.245Z,15.00
2023-05-21T00:51:21.765Z,14.20
2023-05-21T00:54:08.278Z,13.97
2023-05-21T00:56:54.328Z,14.20
2023-05-21T00:59:40.084Z,15.07
2023-05-21T01:02:26.262Z,13.87
2023-05-21T01:05:11.865Z,14.13
2023-05-21T01:07:58.994Z,14.13
2023-05-21T01:10:44.655Z,13.93
2023-05-21T01:13:32.368Z,14.53
2023-05-21T01:16:17.901Z,15.20
2023-05-21T01:19:04.470Z,15.23
2023-05-21T01:21:53.905Z,13.87
2023-05-21T01:24:39.494Z,14.13
2023-05-21T01:27:24.660Z,14.57
2023-05-21T01:30:10.748Z,14.33
2023-05-21T01:33:15.473Z,14.33
2023-05-21T01:36:08.732Z,13.73
2023-05-21T01:39:30.104Z,14.65
2023-05-21T01:42:16.808Z,14.13
2023-05-21T01:45:06.148Z,14.50
2023-05-21T01:47:54.810Z,13.40
2023-05-21T01:50:41.988Z,14.13
2023-05-21T01:53:27.470Z,15.43
2023-05-21T01:56:12.874Z,14.20
2023-05-21T01:59:00.309Z,14.47
2023-05-21T02:01:45.998Z,14.77
2023-05-21T02:04:31.607Z,14.93
2023-05-21T02:07:18.450Z,14.33
2023-05-21T02:10:04.078Z,14.27
2023-05-21T02:12:49.207Z,14.77
2023-05-21T02:15:35.398Z,15.00
2023-05-21T02:18:21.523Z,14.30
2023-05-21T02:21:06.712Z,14.50
2023-05-21T02:23:51.880Z,14.70
2023-05-21T02:26:37.387Z,15.40
2023-05-21T02:29:22.710Z,14.27
2023-05-21T02:32:08.086Z,14.63
2023-05-21T02:34:53.335Z,13.83
2023-05-21T02:37:40.470Z,14.10
2023-05-21T02:40:25.896Z,14.20
2023-05-21T02:43:11.098Z,13.47
2023-05-21T02:45:56.405Z,14.37
2023-05-21T02:48:42.498Z,13.87
2023-05-21T02:51:28.253Z,13.53
2023-05-21T02:54:13.617Z,14.43
2023-05-21T02:56:58.810Z,13.40
2023-05-21T02:59:45.380Z,13.60
2023-05-21T03:02:31.287Z,13.63
2023-05-21T03:05:16.495Z,14.87
2023-05-21T03:08:03.665Z,14.10
2023-05-21T03:10:49.165Z,13.73
2023-05-21T03:13:35.681Z,13.50
2023-05-21T03:16:22.581Z,14.97
2023-05-21T03:19:08.641Z,14.20
2023-05-21T03:21:54.717Z,13.80
2023-05-21T03:24:40.201Z,14.80
2023-05-21T03:27:26.152Z,15.93
2023-05-21T03:30:12.251Z,16.33
2023-05-21T03:33:15.556Z,14.10
2023-05-21T03:36:02.076Z,14.10
2023-05-21T03:38:51.382Z,15.67
2023-05-21T03:41:38.271Z,14.10
2023-05-21T03:44:32.521Z,13.00
2023-05-21T03:47:42.110Z,14.87
2023-05-21T03:50:29.056Z,16.03
2023-05-21T03:53:14.777Z,13.37
2023-05-21T03:56:00.693Z,12.10
2023-05-21T03:58:47.288Z,13.77
2023-05-21T04:01:33.359Z,13.33
2023-05-21T04:04:20.608Z,12.37
2023-05-21T04:07:10.336Z,14.60
2023-05-21T04:09:56.428Z,15.20
2023-05-21T04:12:42.119Z,14.27
2023-05-21T04:15:28.752Z,13.90
2023-05-21T04:18:16.613Z,13.13
2023-05-21T04:21:03.504Z,10.67
2023-05-21T04:23:49.359Z,10.50
2023-05-21T04:27:01.416Z,13.07
2023-05-21T04:29:50.621Z,10.90
2023-05-21T04:32:37.136Z,12.70
2023-05-21T04:35:26.511Z,11.73
2023-05-21T04:38:12.600Z,10.53
2023-05-21T04:40:58.829Z,13.30
2023-05-21T04:43:45.029Z,14.57
2023-05-21T04:46:32.308Z,13.67
2023-05-21T04:49:21.074Z,13.27
2023-05-21T04:52:06.350Z,13.60
2023-05-21T04:54:51.873Z,12.83
2023-05-21T04:57:37.843Z,13.10
2023-05-21T05:00:26.184Z,11.23
2023-05-21T05:03:14.391Z,12.63
2023-05-21T05:20:45.260Z,13.63
2023-05-21T05:23:30.913Z,15.53
2023-05-21T05:26:16.388Z,18.83
2023-05-21T05:29:01.679Z,17.43
2023-05-21T05:31:47.792Z,15.27
2023-05-21T05:34:34.286Z,19.60
2023-05-21T05:37:20.218Z,12.37
2023-05-21T05:40:06.410Z,19.10
2023-05-21T05:42:53.041Z,16.37
2023-05-21T05:45:39.797Z,19.00
2023-05-21T05:48:30.209Z,20.70
2023-05-21T05:51:42.281Z,21.20
2023-05-21T05:54:28.296Z,19.60
2023-05-21T05:57:15.268Z,17.73
2023-05-21T06:00:00.712Z,15.60
2023-05-21T06:02:46.090Z,16.43
2023-05-21T06:05:31.510Z,19.63
2023-05-21T06:08:17.703Z,19.20
2023-05-21T06:11:04.448Z,14.20
2023-05-21T06:13:50.113Z,19.37
2023-05-21T06:16:37.349Z,15.13
2023-05-21T06:19:23.325Z,19.07
2023-05-21T06:22:09.329Z,17.93
2023-05-21T06:24:54.760Z,15.83
2023-05-21T06:27:40.332Z,16.20
2023-05-21T06:30:33.307Z,18.73
2023-05-21T06:33:19.681Z,18.63
2023-05-21T06:36:05.594Z,17.73
2023-05-21T06:38:51.205Z,17.27
2023-05-21T06:41:37.085Z,19.97
2023-05-21T06:44:41.292Z,15.73
2023-05-21T06:47:33.477Z,18.40
2023-05-21T06:50:18.959Z,17.60
2023-05-21T06:53:04.937Z,13.80
2023-05-21T06:55:53.846Z,14.50
2023-05-21T06:58:46.455Z,14.63
2023-05-21T07:01:32.387Z,16.67
2023-05-21T07:04:18.581Z,21.83
2023-05-21T07:07:04.982Z,22.77
2023-05-21T07:09:51.261Z,23.43
2023-05-21T07:12:37.612Z,21.47
2023-05-21T07:15:23.896Z,23.50
2023-05-21T07:18:09.825Z,19.80
2023-05-21T07:20:55.601Z,17.30
2023-05-21T07:23:41.006Z,20.27
2023-05-21T07:26:27.221Z,22.63
2023-05-21T07:29:13.360Z,20.60
2023-05-21T07:31:59.066Z,18.70
2023-05-21T07:34:44.557Z,17.23
2023-05-21T07:37:30.287Z,15.17
2023-05-21T07:40:16.621Z,18.90
2023-05-21T07:43:02.797Z,17.27
2023-05-21T07:45:49.687Z,17.60
2023-05-21T07:48:35.804Z,16.13
2023-05-21T07:51:23.460Z,19.13
2023-05-21T07:54:08.786Z,19.73
2023-05-21T07:56:55.169Z,14.30
2023-05-21T08:00:01.048Z,18.83
2023-05-21T08:02:49.948Z,16.97
2023-05-21T08:05:36.062Z,17.97
2023-05-21T08:08:24.566Z,16.87
2023-05-21T08:11:13.020Z,15.37
2023-05-21T08:13:59.174Z,14.17
2023-05-21T08:16:45.321Z,16.27
2023-05-21T08:19:31.292Z,20.83
2023-05-21T08:22:16.970Z,19.53
2023-05-21T08:25:04.586Z,27.57
2023-05-21T08:27:52.342Z,19.73
2023-05-21T08:30:39.064Z,18.07
2023-05-21T08:33:24.832Z,28.43
2023-05-21T08:36:10.780Z,29.53
2023-05-21T08:39:05.858Z,23.73
2023-05-21T08:42:01.380Z,21.27
2023-05-21T08:44:52.696Z,21.25
2023-05-21T08:47:44.096Z,26.43
2023-05-21T08:50:31.646Z,21.33
2023-05-21T08:53:28.842Z,20.47
2023-05-21T08:56:17.556Z,18.83
2023-05-21T08:59:10.911Z,19.60
2023-05-21T09:01:58.385Z,16.67
2023-05-21T09:04:57.343Z,16.23
2023-05-21T09:08:07.008Z,20.83
2023-05-21T09:11:16.301Z,18.30
2023-05-21T09:14:08.338Z,15.47
2023-05-21T09:17:14.334Z,16.05
2023-05-21T09:20:14.552Z,17.50
2023-05-21T09:23:06.795Z,18.73
2023-05-21T09:25:52.684Z,42.37
2023-05-21T09:28:44.625Z,21.77
2023-05-21T09:31:30.300Z,22.90
2023-05-21T09:34:16.018Z,16.43
2023-05-21T09:37:06.513Z,15.53
2023-05-21T09:39:54.310Z,18.50
2023-05-21T09:42:41.285Z,16.50
2023-05-21T09:45:28.217Z,15.37
2023-05-21T09:48:16.678Z,15.17
2023-05-21T09:51:11.972Z,16.60
2023-05-21T09:53:58.219Z,16.10
2023-05-21T09:56:44.351Z,15.10
2023-05-21T09:59:39.516Z,20.07
2023-05-21T10:02:26.841Z,16.70
2023-05-21T10:05:14.784Z,22.40
2023-05-21T10:08:04.635Z,16.33
2023-05-21T10:10:51.251Z,15.67
2023-05-21T10:13:42.002Z,21.23
2023-05-21T10:16:28.817Z,17.53
2023-05-21T10:19:16.066Z,15.07
2023-05-21T10:22:01.538Z,15.30
2023-05-21T10:24:47.799Z,17.63
2023-05-21T10:27:35.391Z,18.17
2023-05-21T10:30:24.779Z,20.03
2023-05-21T10:33:16.435Z,21.03
2023-05-21T10:36:02.666Z,21.93
2023-05-21T10:38:48.480Z,31.27
2023-05-21T10:41:42.794Z,22.83
2023-05-21T10:44:43.463Z,24.37
2023-05-21T10:47:45.039Z,20.93
2023-05-21T10:50:52.369Z,21.40
2023-05-21T10:53:59.368Z,18.70
2023-05-21T10:56:55.162Z,23.60
2023-05-21T10:59:47.082Z,25.20
2023-05-21T11:02:33.233Z,24.13
2023-05-21T11:05:43.826Z,22.87
2023-05-21T11:08:31.876Z,18.27
2023-05-21T11:11:44.318Z,19.37
2023-05-21T11:14:38.255Z,20.80
2023-05-21T11:17:38.582Z,25.23
2023-05-21T11:20:35.029Z,21.60
2023-05-21T11:23:21.251Z,18.67
2023-05-21T11:26:06.982Z,18.37
2023-05-21T11:29:04.676Z,18.30
2023-05-21T11:32:01.744Z,18.93
2023-05-21T11:34:48.354Z,19.90
2023-05-21T11:37:35.205Z,23.10
2023-05-21T11:40:33.222Z,21.93
2023-05-21T11:43:18.603Z,23.47
2023-05-21T11:46:04.468Z,21.47
2023-05-21T11:48:51.064Z,23.70
2023-05-21T11:51:37.153Z,26.57
2023-05-21T11:54:24.006Z,21.97
2023-05-21T11:57:10.225Z,27.47
2023-05-21T11:59:56.319Z,18.10
2023-05-21T12:02:51.395Z,21.37
2023-05-21T12:05:49.788Z,18.50
2023-05-21T12:08:35.877Z,16.63
2023-05-21T12:11:21.924Z,17.53
2023-05-21T12:14:11.403Z,17.60
2023-05-21T12:16:58.044Z,16.57
2023-05-21T12:19:44.046Z,16.97
2023-05-21T12:22:29.903Z,20.37
2023-05-21T12:25:19.351Z,17.23
2023-05-21T12:28:05.445Z,17.47
2023-05-21T12:30:51.226Z,18.67
2023-05-21T12:33:36.493Z,19.33
2023-05-21T12:36:29.858Z,15.90
2023-05-21T12:39:15.547Z,17.10
2023-05-21T12:42:02.433Z,15.40
2023-05-21T12:44:47.808Z,16.10
2023-05-21T12:47:33.620Z,13.90
2023-05-21T12:50:21.133Z,19.50
2023-05-21T12:53:09.450Z,14.33
2023-05-21T12:55:56.374Z,14.90
2023-05-21T12:58:43.063Z,14.33
2023-05-21T13:01:28.485Z,16.40
2023-05-21T13:04:14.277Z,14.07
2023-05-21T13:06:59.849Z,13.60
2023-05-21T13:09:45.126Z,14.17
2023-05-21T13:12:31.480Z,16.37
2023-05-21T13:15:17.141Z,14.17
2023-05-21T13:18:02.669Z,14.33
2023-05-21T13:20:48.729Z,15.20
2023-05-21T13:23:34.344Z,15.03
2023-05-21T13:26:20.076Z,16.90
2023-05-21T13:29:05.280Z,17.40
2023-05-21T13:31:50.650Z,14.77
2023-05-21T13:34:35.881Z,15.50
2023-05-21T13:37:21.459Z,14.63
2023-05-21T13:40:11.116Z,15.97
2023-05-21T13:42:57.008Z,20.00
2023-05-21T13:45:44.058Z,15.07
2023-05-21T13:48:29.747Z,15.10
2023-05-21T13:51:25.597Z,15.43
2023-05-21T13:54:21.349Z,20.60
2023-05-21T13:57:07.078Z,16.63
2023-05-21T13:59:52.881Z,14.97
2023-05-21T14:02:38.452Z,14.40
2023-05-21T14:05:24.128Z,15.50
2023-05-21T14:08:09.414Z,18.57
2023-05-21T14:10:54.593Z,23.07
2023-05-21T14:13:40.125Z,16.20
2023-05-21T14:16:27.525Z,16.33
2023-05-21T14:19:13.064Z,17.87
2023-05-21T14:21:59.951Z,14.73
2023-05-21T14:24:46.110Z,19.27
2023-05-21T14:27:31.643Z,17.17
2023-05-21T14:30:17.162Z,17.40
2023-05-21T14:33:02.694Z,14.73
2023-05-21T14:35:48.469Z,16.23
2023-05-21T14:38:33.825Z,17.90
2023-05-21T14:41:19.750Z,17.00
2023-05-21T14:44:05.667Z,17.43
2023-05-21T14:46:51.457Z,15.73
2023-05-21T14:49:37.003Z,14.80
2023-05-21T14:52:22.342Z,17.73
2023-05-21T14:55:08.314Z,15.87
2023-05-21T14:57:53.726Z,14.03
2023-05-21T15:00:39.277Z,14.30
2023-05-21T15:03:25.007Z,13.47
2023-05-21T15:06:10.730Z,13.93
2023-05-21T15:08:56.337Z,15.50
2023-05-21T15:11:43.900Z,13.27
2023-05-21T15:14:29.247Z,12.43
2023-05-21T15:17:14.860Z,12.50
2023-05-21T15:20:04.557Z,11.93
2023-05-21T15:22:49.635Z,11.33
2023-05-21T15:25:35.042Z,12.17
2023-05-21T15:28:20.729Z,13.23
2023-05-21T15:31:06.145Z,10.53
2023-05-21T15:33:51.615Z,11.13
2023-05-21T15:36:37.226Z,12.97
2023-05-21T15:39:22.583Z,11.17
2023-05-21T15:42:07.956Z,10.60
2023-05-21T15:44:53.510Z,13.87
2023-05-21T15:47:42.714Z,11.87
2023-05-21T15:50:28.537Z,10.67
2023-05-21T15:53:14.141Z,10.73
2023-05-21T15:55:59.701Z,10.43
2023-05-21T15:58:45.059Z,14.43
2023-05-21T16:01:31.539Z,14.53
2023-05-21T16:04:20.133Z,13.07
2023-05-21T16:07:05.701Z,10.50
2023-05-21T16:09:51.014Z,10.30
2023-05-21T16:12:36.449Z,11.43
2023-05-21T16:15:22.341Z,13.00
2023-05-21T16:18:09.765Z,13.40
2023-05-21T16:20:56.623Z,9.53
2023-05-21T16:23:42.369Z,10.77
2023-05-21T16:26:27.621Z,10.13
2023-05-21T16:29:13.092Z,10.87
2023-05-21T16:31:58.938Z,9.30
2023-05-21T16:34:44.507Z,11.17
2023-05-21T16:37:29.936Z,9.83
2023-05-21T16:40:15.460Z,10.67
2023-05-21T16:43:02.279Z,16.13
2023-05-21T16:45:49.310Z,9.63
2023-05-21T16:48:37.305Z,11.33
2023-05-21T16:51:23.476Z,9.73
2023-05-21T16:54:09.229Z,8.37
2023-05-21T16:56:55.042Z,9.43
2023-05-21T16:59:41.204Z,9.80
2023-05-21T17:02:26.839Z,11.03
2023-05-21T17:05:12.653Z,10.13
2023-05-21T17:07:58.009Z,11.47
2023-05-21T17:10:43.380Z,9.70
2023-05-21T17:13:28.565Z,8.90
2023-05-21T17:16:14.498Z,9.07
2023-05-21T17:19:00.157Z,9.60
2023-05-21T17:21:46.043Z,10.97
2023-05-21T17:24:31.721Z,10.90
2023-05-21T17:27:17.136Z,9.20
2023-05-21T17:30:03.888Z,10.00
2023-05-21T17:32:49.507Z,12.93
2023-05-21T17:35:35.083Z,8.97
2023-05-21T17:38:20.947Z,10.50
2023-05-21T17:41:06.453Z,10.50
2023-05-21T17:43:51.956Z,9.60
2023-05-21T17:46:37.218Z,12.33
2023-05-21T17:49:22.629Z,11.10
2023-05-21T17:52:08.413Z,10.07
2023-05-21T17:54:53.514Z,10.23
2023-05-21T17:57:39.013Z,10.80
2023-05-21T18:00:24.666Z,9.90
2023-05-21T18:03:10.136Z,10.10
2023-05-21T18:05:56.179Z,14.37
2023-05-21T18:08:41.375Z,9.27
2023-05-21T18:11:27.000Z,8.47
2023-05-21T18:14:12.638Z,13.53
2023-05-21T18:16:58.081Z,9.30
2023-05-21T18:19:43.936Z,11.43
2023-05-21T18:22:29.053Z,10.73
2023-05-21T18:25:14.424Z,11.47
2023-05-21T18:28:00.348Z,10.27
2023-05-21T18:30:45.978Z,9.07
2023-05-21T18:33:31.562Z,10.37
2023-05-21T18:36:17.559Z,9.30
2023-05-21T18:39:02.872Z,8.10
2023-05-21T18:41:51.660Z,8.10
2023-05-21T18:44:37.131Z,8.23
2023-05-21T18:47:22.897Z,9.40
2023-05-21T18:50:11.025Z,8.67
2023-05-21T18:52:56.505Z,8.07
2023-05-21T18:55:42.027Z,8.83
2023-05-21T18:58:29.289Z,8.43
2023-05-21T19:01:15.482Z,8.90
2023-05-21T19:04:00.992Z,9.87
2023-05-21T19:06:47.097Z,8.43
2023-05-21T19:09:32.343Z,13.43
2023-05-21T19:12:17.633Z,13.50
2023-05-21T19:15:03.996Z,10.20
2023-05-21T19:17:49.378Z,9.80
2023-05-21T19:20:37.089Z,8.10
2023-05-21T19:23:24.590Z,9.77
2023-05-21T19:26:09.867Z,10.13
2023-05-21T19:28:55.496Z,9.00
2023-05-21T19:31:41.527Z,8.93
2023-05-21T19:34:27.061Z,8.90
2023-05-21T19:37:12.659Z,9.07
2023-05-21T19:39:57.932Z,11.40
2023-05-21T19:42:43.076Z,8.07
2023-05-21T19:45:28.380Z,8.80
2023-05-21T19:48:13.636Z,8.40
2023-05-21T19:50:58.711Z,9.70
2023-05-21T19:53:44.014Z,8.57
2023-05-21T19:56:29.250Z,8.80
2023-05-21T19:59:14.857Z,8.80
2023-05-21T20:02:00.493Z,9.60
2023-05-21T20:04:46.038Z,9.63
2023-05-21T20:07:31.370Z,12.77
2023-05-21T20:10:16.540Z,9.40
2023-05-21T20:13:01.983Z,10.07
2023-05-21T20:15:48.060Z,9.13
2023-05-21T20:18:33.597Z,9.97
2023-05-21T20:21:19.062Z,8.97
2023-05-21T20:24:04.533Z,8.90
2023-05-21T20:26:50.102Z,11.50
2023-05-21T20:29:35.905Z,10.30
2023-05-21T20:32:21.320Z,9.93
2023-05-21T20:35:09.127Z,9.27
2023-05-21T20:37:54.772Z,8.67
2023-05-21T20:40:40.072Z,8.97
2023-05-21T20:43:25.843Z,9.90
2023-05-21T20:46:11.193Z,9.17
2023-05-21T20:48:57.998Z,8.67
2023-05-21T20:51:43.565Z,9.37
2023-05-21T20:54:30.830Z,9.40
2023-05-21T20:57:16.607Z,9.50
2023-05-21T21:00:02.172Z,8.87
2023-05-21T21:02:47.748Z,9.63
2023-05-21T21:05:32.843Z,9.20
2023-05-21T21:08:18.169Z,10.33
2023-05-21T21:11:03.649Z,9.50
2023-05-21T21:13:49.913Z,9.67
2023-05-21T21:16:35.291Z,9.47
2023-05-21T21:19:20.558Z,9.17
2023-05-21T21:22:05.776Z,8.90
2023-05-21T21:24:51.124Z,10.60
2023-05-21T21:27:36.378Z,9.00
2023-05-21T21:30:21.917Z,9.47
2023-05-21T21:33:08.042Z,8.87
2023-05-21T21:35:53.753Z,8.77
2023-05-21T21:38:39.064Z,8.37
2023-05-21T21:41:24.403Z,8.47
2023-05-21T21:44:09.978Z,9.10
2023-05-21T21:46:55.394Z,8.80
2023-05-21T21:49:41.535Z,9.83
2023-05-21T21:52:27.572Z,8.63
2023-05-21T21:55:12.947Z,8.77
2023-05-21T21:57:58.496Z,8.80
2023-05-21T22:00:43.717Z,8.70
2023-05-21T22:03:32.233Z,8.87
2023-05-21T22:06:17.954Z,9.07
2023-05-21T22:09:03.402Z,9.13
2023-05-21T22:11:48.827Z,8.23
2023-05-21T22:14:34.832Z,8.17
2023-05-21T22:17:21.338Z,10.23
2023-05-21T22:20:07.082Z,8.20
2023-05-21T22:22:54.788Z,9.10
2023-05-21T22:25:41.474Z,9.30
2023-05-21T22:28:26.821Z,10.20
2023-05-21T22:31:12.316Z,8.87
2023-05-21T22:33:57.793Z,9.20
2023-05-21T22:36:43.576Z,8.20
2023-05-21T22:39:28.802Z,8.47
2023-05-21T22:42:14.134Z,8.23
2023-05-21T22:44:59.398Z,8.67
2023-05-21T22:47:44.790Z,8.57
2023-05-21T22:50:32.860Z,8.80
2023-05-21T22:53:18.325Z,8.83
2023-05-21T22:56:03.720Z,7.63
2023-05-21T22:58:48.900Z,8.27
2023-05-21T23:01:34.364Z,9.57
2023-05-21T23:04:29.026Z,9.00
2023-05-21T23:07:21.641Z,8.53
2023-05-21T23:10:07.763Z,9.10
2023-05-21T23:12:54.075Z,8.40
2023-05-21T23:15:39.446Z,8.50
2023-05-21T23:18:26.130Z,8.57
2023-05-21T23:21:11.516Z,9.67
2023-05-21T23:23:56.668Z,7.90
2023-05-21T23:26:41.945Z,8.20
2023-05-21T23:29:27.497Z,8.70
2023-05-21T23:32:13.146Z,8.87
2023-05-21T23:34:58.260Z,9.67
2023-05-21T23:37:43.615Z,8.70
2023-05-21T23:40:28.842Z,8.07
2023-05-21T23:43:14.112Z,8.43
2023-05-21T23:45:59.394Z,8.50
2023-05-21T23:48:45.177Z,8.40
2023-05-21T23:51:30.982Z,8.00
2023-05-21T23:54:17.232Z,7.47
2023-05-21T23:57:02.544Z,9.10
2023-05-21T23:59:48.054Z,8.10
